Time;durP1;ratioP1;P1;durP2;ratioP2;P2;SDS_P1;SDS_P2;PMS_P1;PMS_P2;Temp;Humidity;BMP_temperature;BMP_pressure;BME280_temperature;BME280_humidity;BME280_pressure;Samples;Min_cycle;Max_cycle;Signal;HPM_P1;HPM_P2
2023/12/04 00:00:33;;;;;;;2.33;1.73;;;;;;;;;;5047913;28;20419;-72
2023/12/04 00:02:59;;;;;;;2.35;1.70;;;;;;;;;;5047409;28;20041;-72
2023/12/04 00:05:24;;;;;;;2.97;2.00;;;;;;;;;;5045961;28;20056;-73
2023/12/04 00:07:50;;;;;;;2.35;1.88;;;;;;;;;;5052964;28;20025;-72
2023/12/04 00:10:15;;;;;;;2.78;1.90;;;;;;;;;;5066805;28;20500;-71
2023/12/04 00:12:40;;;;;;;3.15;1.95;;;;;;;;;;5048092;28;20533;-72
2023/12/04 00:15:06;;;;;;;2.78;1.95;;;;;;;;;;5046986;28;20037;-72
2023/12/04 00:17:31;;;;;;;2.70;1.90;;;;;;;;;;5047697;28;20120;-72
2023/12/04 00:19:56;;;;;;;2.53;1.77;;;;;;;;;;5046274;28;20032;-72
2023/12/04 00:22:23;;;;;;;2.72;1.70;;;;;;;;;;5045532;28;20037;-72
2023/12/04 00:24:49;;;;;;;2.53;1.90;;;;;;;;;;5045260;28;20049;-72
2023/12/04 00:27:14;;;;;;;2.60;1.83;;;;;;;;;;5046991;28;20170;-74
2023/12/04 00:29:39;;;;;;;2.40;1.75;;;;;;;;;;5057714;28;20410;-72
2023/12/04 00:32:05;;;;;;;2.65;1.80;;;;;;;;;;5045789;28;20053;-72
2023/12/04 00:34:30;;;;;;;2.55;1.73;;;;;;;;;;5046353;28;20098;-71
2023/12/04 00:36:55;;;;;;;2.95;1.77;;;;;;;;;;5062346;28;20047;-72
2023/12/04 00:39:21;;;;;;;2.35;1.67;;;;;;;;;;5048168;28;20052;-72
2023/12/04 00:41:46;;;;;;;2.88;2.00;;;;;;;;;;5045674;28;20053;-72
2023/12/04 00:44:11;;;;;;;2.88;2.00;;;;;;;;;;5046687;28;20151;-72
2023/12/04 00:46:37;;;;;;;2.40;1.75;;;;;;;;;;5045501;28;20047;-72
2023/12/04 00:49:02;;;;;;;2.60;1.80;;;;;;;;;;5046885;28;20127;-72
2023/12/04 00:51:27;;;;;;;2.75;2.00;;;;;;;;;;5046764;28;20094;-71
2023/12/04 00:53:53;;;;;;;2.53;1.98;;;;;;;;;;5037594;28;20052;-72
2023/12/04 00:56:20;;;;;;;2.05;1.60;;;;;;;;;;5026575;28;20144;-72
2023/12/04 00:58:45;;;;;;;2.55;1.80;;;;;;;;;;5035827;28;20034;-72
2023/12/04 01:01:10;;;;;;;2.53;1.60;;;;;;;;;;5038224;28;20547;-72
2023/12/04 01:03:36;;;;;;;2.25;1.90;;;;;;;;;;5061244;28;20562;-72
2023/12/04 01:06:01;;;;;;;2.53;1.90;;;;;;;;;;5041424;28;20033;-72
2023/12/04 01:08:26;;;;;;;2.47;1.70;;;;;;;;;;5046731;28;20041;-72
2023/12/04 01:10:52;;;;;;;2.90;1.65;;;;;;;;;;5046053;28;20090;-72
2023/12/04 01:13:17;;;;;;;2.63;1.75;;;;;;;;;;5045593;28;20075;-72
2023/12/04 01:15:42;;;;;;;2.92;1.80;;;;;;;;;;5044947;28;20033;-72
2023/12/04 01:18:08;;;;;;;1.98;1.58;;;;;;;;;;5041982;28;20033;-72
2023/12/04 01:20:34;;;;;;;2.35;1.60;;;;;;;;;;5034376;28;20063;-72
2023/12/04 01:22:59;;;;;;;2.42;1.80;;;;;;;;;;5037776;28;22008;-72
2023/12/04 01:25:24;;;;;;;2.30;1.92;;;;;;;;;;5045540;28;20041;-72
2023/12/04 01:27:50;;;;;;;2.38;1.77;;;;;;;;;;5044426;28;20579;-73
2023/12/04 01:30:15;;;;;;;2.40;1.88;;;;;;;;;;5045736;28;20044;-74
2023/12/04 01:32:40;;;;;;;2.50;1.80;;;;;;;;;;5061091;28;20029;-74
2023/12/04 01:35:06;;;;;;;2.42;1.65;;;;;;;;;;5045354;28;20123;-74
2023/12/04 01:37:31;;;;;;;2.58;2.00;;;;;;;;;;5045721;28;20072;-74
2023/12/04 01:39:57;;;;;;;2.25;1.70;;;;;;;;;;5044505;28;20041;-73
2023/12/04 01:42:22;;;;;;;2.10;1.58;;;;;;;;;;5044336;28;20123;-74
2023/12/04 01:44:47;;;;;;;3.10;1.95;;;;;;;;;;5044905;28;20048;-72
2023/12/04 01:47:12;;;;;;;2.33;1.80;;;;;;;;;;5045617;28;20040;-72
2023/12/04 01:49:38;;;;;;;2.45;1.63;;;;;;;;;;5044199;28;20033;-72
2023/12/04 01:52:03;;;;;;;2.97;1.83;;;;;;;;;;5049589;28;20037;-72
2023/12/04 01:54:29;;;;;;;2.30;1.70;;;;;;;;;;5043815;28;20033;-72
2023/12/04 01:56:54;;;;;;;2.28;1.58;;;;;;;;;;5044294;28;20051;-72
2023/12/04 01:59:19;;;;;;;2.65;1.90;;;;;;;;;;5044427;28;20486;-72
2023/12/04 02:01:45;;;;;;;2.58;1.90;;;;;;;;;;5044080;28;20049;-72
2023/12/04 02:04:10;;;;;;;2.40;1.77;;;;;;;;;;5060196;28;20140;-72
2023/12/04 02:06:35;;;;;;;2.13;1.70;;;;;;;;;;5045270;28;20036;-70
2023/12/04 02:09:01;;;;;;;2.63;1.85;;;;;;;;;;5043168;28;20037;-70
2023/12/04 02:11:26;;;;;;;1.90;1.65;;;;;;;;;;5028487;28;20036;-74
2023/12/04 02:13:52;;;;;;;2.30;1.70;;;;;;;;;;5025617;28;20029;-72
2023/12/04 02:16:18;;;;;;;3.03;1.73;;;;;;;;;;5042394;28;20052;-72
2023/12/04 02:18:44;;;;;;;2.55;1.63;;;;;;;;;;5042146;28;20111;-71
2023/12/04 02:21:09;;;;;;;2.00;1.48;;;;;;;;;;5044005;28;20509;-71
2023/12/04 02:23:34;;;;;;;2.53;1.83;;;;;;;;;;5043564;28;20128;-71
2023/12/04 02:26:01;;;;;;;2.42;1.75;;;;;;;;;;5045155;28;20037;-72
2023/12/04 02:28:27;;;;;;;2.35;1.88;;;;;;;;;;5044077;28;20059;-71
2023/12/04 02:30:52;;;;;;;2.78;1.80;;;;;;;;;;5044335;28;20490;-72
2023/12/04 02:33:18;;;;;;;2.53;1.83;;;;;;;;;;5043055;28;20041;-72
2023/12/04 02:35:43;;;;;;;2.03;1.58;;;;;;;;;;5043399;28;20076;-72
2023/12/04 02:38:09;;;;;;;2.33;1.77;;;;;;;;;;5044227;28;20037;-72
2023/12/04 02:40:34;;;;;;;2.92;1.88;;;;;;;;;;5043146;28;20473;-72
2023/12/04 02:43:00;;;;;;;2.00;1.50;;;;;;;;;;5048890;28;20055;-72
2023/12/04 02:45:25;;;;;;;2.58;1.80;;;;;;;;;;5045105;28;20140;-72
2023/12/04 02:47:50;;;;;;;2.40;1.65;;;;;;;;;;5045169;28;20070;-72
2023/12/04 02:50:15;;;;;;;2.72;1.92;;;;;;;;;;5044895;28;20029;-72
2023/12/04 02:52:41;;;;;;;2.25;1.55;;;;;;;;;;5045217;28;20071;-72
2023/12/04 02:55:06;;;;;;;2.55;1.65;;;;;;;;;;5044686;28;20037;-71
2023/12/04 02:57:32;;;;;;;2.40;1.75;;;;;;;;;;5044257;28;20057;-72
2023/12/04 02:59:57;;;;;;;2.30;1.80;;;;;;;;;;5048193;28;20040;-72
2023/12/04 03:02:22;;;;;;;2.53;1.70;;;;;;;;;;5047464;28;20537;-73
2023/12/04 03:04:47;;;;;;;2.20;1.80;;;;;;;;;;5045353;28;20037;-72
2023/12/04 03:07:13;;;;;;;2.22;1.60;;;;;;;;;;5044535;28;20038;-72
2023/12/04 03:09:38;;;;;;;2.15;1.73;;;;;;;;;;5047707;28;20037;-72
2023/12/04 03:12:04;;;;;;;2.67;1.80;;;;;;;;;;5044809;28;20041;-71
2023/12/04 03:14:29;;;;;;;2.78;1.70;;;;;;;;;;5046945;28;20075;-73
2023/12/04 03:16:55;;;;;;;2.45;1.70;;;;;;;;;;5046202;28;20087;-72
2023/12/04 03:19:21;;;;;;;2.35;1.80;;;;;;;;;;5046994;28;20100;-73
2023/12/04 03:21:46;;;;;;;2.80;1.85;;;;;;;;;;5064514;28;20055;-72
2023/12/04 03:24:11;;;;;;;2.30;1.70;;;;;;;;;;5046705;28;20388;-73
2023/12/04 03:26:37;;;;;;;2.83;1.90;;;;;;;;;;5047900;28;20096;-72
2023/12/04 03:29:02;;;;;;;2.30;1.70;;;;;;;;;;5048358;28;20474;-72
2023/12/04 03:31:28;;;;;;;2.38;1.73;;;;;;;;;;5032120;28;20093;-72
2023/12/04 03:33:53;;;;;;;2.45;1.73;;;;;;;;;;5046610;28;20468;-72
2023/12/04 03:36:18;;;;;;;2.47;1.70;;;;;;;;;;5046392;28;20090;-72
2023/12/04 03:38:44;;;;;;;2.33;1.70;;;;;;;;;;5046186;28;20075;-72
2023/12/04 03:41:15;;;;;;;2.58;1.73;;;;;;;;;;5055333;28;20450;-73
2023/12/04 03:43:41;;;;;;;2.33;1.65;;;;;;;;;;5046427;28;20032;-73
2023/12/04 03:46:06;;;;;;;2.58;1.70;;;;;;;;;;5044676;28;20382;-73
2023/12/04 03:48:32;;;;;;;2.30;1.63;;;;;;;;;;5049621;28;20025;-73
2023/12/04 03:50:57;;;;;;;2.05;1.58;;;;;;;;;;5044985;28;20087;-72
2023/12/04 03:53:23;;;;;;;2.28;1.77;;;;;;;;;;5043552;28;20013;-72
2023/12/04 03:55:48;;;;;;;2.13;1.70;;;;;;;;;;5046791;28;20084;-72
2023/12/04 03:58:13;;;;;;;2.45;1.88;;;;;;;;;;5047501;28;20460;-72
2023/12/04 04:00:41;;;;;;;2.45;1.63;;;;;;;;;;5047334;28;20017;-73
2023/12/04 04:03:06;;;;;;;2.10;1.50;;;;;;;;;;5047420;28;20025;-72
2023/12/04 04:05:34;;;;;;;1.90;1.38;;;;;;;;;;5047515;28;20023;-71
2023/12/04 04:07:59;;;;;;;2.42;1.73;;;;;;;;;;5046864;28;20890;-72
2023/12/04 04:10:24;;;;;;;2.10;1.70;;;;;;;;;;5043533;28;20110;-72
2023/12/04 04:12:50;;;;;;;2.15;1.50;;;;;;;;;;5045767;28;20029;-73
2023/12/04 04:15:15;;;;;;;2.10;1.60;;;;;;;;;;5044976;28;20033;-73
2023/12/04 04:17:40;;;;;;;2.35;1.60;;;;;;;;;;5046514;28;20025;-73
2023/12/04 04:20:06;;;;;;;2.13;1.60;;;;;;;;;;5046048;28;20060;-72
2023/12/04 04:22:34;;;;;;;1.77;1.25;;;;;;;;;;5046483;28;20207;-72
2023/12/04 04:24:59;;;;;;;2.00;1.45;;;;;;;;;;5045216;28;20033;-71
2023/12/04 04:27:25;;;;;;;2.38;1.55;;;;;;;;;;5045423;28;20079;-72
2023/12/04 04:29:50;;;;;;;2.20;1.63;;;;;;;;;;5045252;28;20056;-73
2023/12/04 04:32:15;;;;;;;2.35;1.55;;;;;;;;;;5046587;28;20033;-74
2023/12/04 04:34:41;;;;;;;2.10;1.40;;;;;;;;;;5044272;28;20024;-71
2023/12/04 04:37:06;;;;;;;1.58;1.10;;;;;;;;;;5042543;28;20036;-73
2023/12/04 04:39:31;;;;;;;1.95;1.40;;;;;;;;;;5046063;28;20033;-72
2023/12/04 04:41:56;;;;;;;1.73;1.30;;;;;;;;;;5044746;28;20037;-72
2023/12/04 04:44:22;;;;;;;1.77;1.38;;;;;;;;;;5043794;28;20067;-71
2023/12/04 04:46:47;;;;;;;1.98;1.25;;;;;;;;;;5043315;28;20506;-71
2023/12/04 04:49:12;;;;;;;1.70;1.38;;;;;;;;;;5048874;28;20033;-72
2023/12/04 04:51:38;;;;;;;2.22;1.70;;;;;;;;;;5043627;28;20033;-72
2023/12/04 04:54:03;;;;;;;2.05;1.45;;;;;;;;;;5045905;28;20461;-74
2023/12/04 04:56:29;;;;;;;1.77;1.20;;;;;;;;;;5045600;28;20098;-71
2023/12/04 04:58:55;;;;;;;2.08;1.60;;;;;;;;;;5044571;28;20037;-73
2023/12/04 05:01:20;;;;;;;1.73;1.45;;;;;;;;;;5044668;28;20130;-71
2023/12/04 05:03:45;;;;;;;2.05;1.50;;;;;;;;;;5042894;28;20041;-73
2023/12/04 05:06:10;;;;;;;2.10;1.50;;;;;;;;;;5043154;28;20029;-74
2023/12/04 05:08:36;;;;;;;1.85;1.40;;;;;;;;;;5044243;28;20089;-74
2023/12/04 05:11:01;;;;;;;1.98;1.35;;;;;;;;;;5038641;28;20041;-73
2023/12/04 05:13:26;;;;;;;2.10;1.58;;;;;;;;;;5045547;28;20037;-74
2023/12/04 05:15:52;;;;;;;2.00;1.58;;;;;;;;;;5045279;28;20056;-74
2023/12/04 05:18:17;;;;;;;2.30;1.50;;;;;;;;;;5045136;28;20493;-74
2023/12/04 05:20:42;;;;;;;2.05;1.60;;;;;;;;;;5042979;28;20102;-71
2023/12/04 05:23:07;;;;;;;1.65;1.20;;;;;;;;;;5045130;28;20055;-71
2023/12/04 05:25:33;;;;;;;2.08;1.40;;;;;;;;;;5044846;28;20497;-72
2023/12/04 05:27:58;;;;;;;2.20;1.30;;;;;;;;;;5044641;28;20075;-72
2023/12/04 05:30:23;;;;;;;1.90;1.50;;;;;;;;;;5043349;28;20137;-72
2023/12/04 05:32:49;;;;;;;2.25;1.63;;;;;;;;;;5045428;28;20044;-72
2023/12/04 05:35:15;;;;;;;2.03;1.58;;;;;;;;;;5044752;28;20064;-71
2023/12/04 05:37:40;;;;;;;1.63;1.10;;;;;;;;;;5042284;28;20064;-71
2023/12/04 05:40:06;;;;;;;2.08;1.48;;;;;;;;;;5043666;28;20107;-71
2023/12/04 05:42:31;;;;;;;1.85;1.27;;;;;;;;;;5044746;28;20040;-72
2023/12/04 05:44:57;;;;;;;1.75;1.30;;;;;;;;;;5039789;28;20060;-72
2023/12/04 05:47:22;;;;;;;2.50;1.50;;;;;;;;;;5041925;28;20029;-73
2023/12/04 05:49:48;;;;;;;1.75;1.35;;;;;;;;;;5033792;28;20041;-71
2023/12/04 05:52:13;;;;;;;4.53;2.28;;;;;;;;;;5032886;28;20741;-71
2023/12/04 05:54:38;;;;;;;5.50;1.95;;;;;;;;;;5039892;28;20470;-73
2023/12/04 05:57:04;;;;;;;2.75;1.55;;;;;;;;;;5041924;28;20037;-73
2023/12/04 05:59:29;;;;;;;11.15;2.30;;;;;;;;;;5041892;28;20041;-71
2023/12/04 06:01:54;;;;;;;6.65;1.80;;;;;;;;;;5022536;28;20052;-71
2023/12/04 06:04:19;;;;;;;5.18;2.20;;;;;;;;;;5039584;28;20535;-71
2023/12/04 06:06:45;;;;;;;4.80;2.25;;;;;;;;;;5035481;28;20043;-69
2023/12/04 06:09:10;;;;;;;10.52;2.22;;;;;;;;;;5038611;28;20370;-70
2023/12/04 06:11:36;;;;;;;9.77;2.10;;;;;;;;;;5030560;28;20091;-71
2023/12/04 06:14:01;;;;;;;10.05;2.00;;;;;;;;;;5038997;28;20037;-71
2023/12/04 06:16:26;;;;;;;7.30;2.40;;;;;;;;;;5036682;28;20037;-70
2023/12/04 06:18:52;;;;;;;7.25;1.98;;;;;;;;;;5037989;28;21841;-71
2023/12/04 06:21:18;;;;;;;10.07;2.63;;;;;;;;;;5037721;28;20460;-72
2023/12/04 06:23:43;;;;;;;8.27;2.50;;;;;;;;;;5037185;28;20037;-74
2023/12/04 06:26:09;;;;;;;9.10;2.63;;;;;;;;;;5037869;28;20040;-71
2023/12/04 06:28:35;;;;;;;9.32;2.03;;;;;;;;;;5035484;28;20509;-70
2023/12/04 06:31:00;;;;;;;8.82;2.25;;;;;;;;;;5037229;28;20041;-70
2023/12/04 06:33:26;;;;;;;7.13;2.13;;;;;;;;;;5040294;28;20488;-71
2023/12/04 06:35:51;;;;;;;7.47;2.30;;;;;;;;;;5042382;28;20091;-73
2023/12/04 06:38:17;;;;;;;8.50;2.45;;;;;;;;;;5035475;28;20041;-72
2023/12/04 06:40:42;;;;;;;6.35;2.40;;;;;;;;;;5041182;28;20033;-74
2023/12/04 06:43:07;;;;;;;10.43;2.30;;;;;;;;;;5041584;28;20045;-71
2023/12/04 06:45:33;;;;;;;6.63;2.40;;;;;;;;;;5040862;28;20089;-70
2023/12/04 06:47:58;;;;;;;6.88;2.20;;;;;;;;;;5020564;28;20501;-73
2023/12/04 06:50:24;;;;;;;7.53;2.38;;;;;;;;;;5042745;28;20036;-71
2023/12/04 06:52:49;;;;;;;6.82;2.40;;;;;;;;;;5034132;28;20033;-71
2023/12/04 06:55:15;;;;;;;14.00;2.80;;;;;;;;;;5040969;28;20041;-71
2023/12/04 06:57:40;;;;;;;11.52;2.53;;;;;;;;;;5040371;28;20029;-71
2023/12/04 07:00:12;;;;;;;6.53;2.33;;;;;;;;;;5040408;28;20166;-71
2023/12/04 07:02:37;;;;;;;8.70;2.67;;;;;;;;;;5041542;28;20136;-71
2023/12/04 07:05:03;;;;;;;8.07;2.50;;;;;;;;;;5040446;28;20036;-70
2023/12/04 07:07:29;;;;;;;10.50;2.65;;;;;;;;;;5040713;28;20707;-70
2023/12/04 07:09:54;;;;;;;6.38;2.42;;;;;;;;;;5041687;28;20078;-73
2023/12/04 07:12:20;;;;;;;11.65;2.55;;;;;;;;;;5040915;28;20041;-71
2023/12/04 07:14:45;;;;;;;7.35;2.55;;;;;;;;;;5040476;28;20504;-72
2023/12/04 07:17:11;;;;;;;7.43;2.58;;;;;;;;;;5040865;28;20033;-71
2023/12/04 07:19:36;;;;;;;7.40;2.22;;;;;;;;;;5039494;28;20021;-71
2023/12/04 07:22:02;;;;;;;5.65;2.40;;;;;;;;;;5034011;28;20542;-70
2023/12/04 07:24:27;;;;;;;7.22;2.90;;;;;;;;;;5041159;28;20046;-71
2023/12/04 07:26:53;;;;;;;9.15;2.55;;;;;;;;;;5040709;28;22129;-70
2023/12/04 07:29:18;;;;;;;7.82;2.25;;;;;;;;;;5039235;28;20442;-70
2023/12/04 07:31:44;;;;;;;4.70;2.33;;;;;;;;;;5040924;28;20103;-71
2023/12/04 07:34:09;;;;;;;6.07;2.50;;;;;;;;;;5038128;28;20063;-70
2023/12/04 07:36:34;;;;;;;5.35;2.42;;;;;;;;;;5035761;28;20783;-71
2023/12/04 07:39:00;;;;;;;6.10;2.15;;;;;;;;;;5023748;28;20029;-73
2023/12/04 07:41:25;;;;;;;8.63;2.15;;;;;;;;;;5036874;28;20422;-72
2023/12/04 07:43:51;;;;;;;9.43;2.20;;;;;;;;;;5039736;28;20173;-71
2023/12/04 07:46:16;;;;;;;6.97;2.30;;;;;;;;;;5038584;28;20040;-72
2023/12/04 07:48:43;;;;;;;5.88;2.38;;;;;;;;;;5035640;28;20114;-71
2023/12/04 07:51:09;;;;;;;5.50;2.13;;;;;;;;;;5040982;28;20076;-72
2023/12/04 07:53:34;;;;;;;5.47;2.70;;;;;;;;;;5041851;28;20064;-72
2023/12/04 07:56:05;;;;;;;6.55;2.00;;;;;;;;;;5036056;28;20041;-73
2023/12/04 07:58:32;;;;;;;6.65;2.55;;;;;;;;;;5040508;28;20044;-72
2023/12/04 08:00:57;;;;;;;5.57;2.42;;;;;;;;;;5034556;28;20552;-72
2023/12/04 08:03:23;;;;;;;4.72;2.00;;;;;;;;;;5024921;28;20135;-71
2023/12/04 08:05:49;;;;;;;7.35;2.38;;;;;;;;;;5042139;28;20579;-72
2023/12/04 08:08:14;;;;;;;7.10;2.20;;;;;;;;;;5045982;28;20048;-72
2023/12/04 08:10:40;;;;;;;3.83;1.90;;;;;;;;;;5043896;28;20030;-72
2023/12/04 08:13:05;;;;;;;4.25;2.08;;;;;;;;;;5047532;28;20048;-73
2023/12/04 08:15:30;;;;;;;5.07;2.10;;;;;;;;;;5030224;28;20592;-72
2023/12/04 08:17:57;;;;;;;5.90;2.40;;;;;;;;;;5046403;28;20056;-71
2023/12/04 08:20:23;;;;;;;5.10;2.33;;;;;;;;;;5048227;28;20045;-75
2023/12/04 08:22:49;;;;;;;6.10;2.10;;;;;;;;;;5041299;28;20048;-70
2023/12/04 08:25:14;;;;;;;4.25;2.28;;;;;;;;;;5037624;28;20040;-73
2023/12/04 08:27:39;;;;;;;4.50;1.95;;;;;;;;;;5043515;28;20404;-71
2023/12/04 08:30:05;;;;;;;6.15;2.00;;;;;;;;;;5044343;28;20414;-72
2023/12/04 08:32:30;;;;;;;5.28;2.25;;;;;;;;;;5045491;28;20101;-72
2023/12/04 08:34:56;;;;;;;8.05;2.30;;;;;;;;;;5047059;28;20033;-74
2023/12/04 08:37:21;;;;;;;8.07;2.45;;;;;;;;;;5047283;28;20036;-71
2023/12/04 08:39:46;;;;;;;3.05;1.83;;;;;;;;;;5046394;28;20025;-71
2023/12/04 08:42:12;;;;;;;4.20;2.05;;;;;;;;;;5046321;28;20045;-75
2023/12/04 08:44:37;;;;;;;4.68;2.00;;;;;;;;;;5045880;28;20139;-72
2023/12/04 08:47:03;;;;;;;4.50;1.75;;;;;;;;;;5046869;28;20055;-73
2023/12/04 08:49:28;;;;;;;3.42;1.80;;;;;;;;;;5045471;28;20571;-71
2023/12/04 08:51:53;;;;;;;4.15;2.00;;;;;;;;;;5041886;28;20026;-72
2023/12/04 08:54:19;;;;;;;2.95;1.70;;;;;;;;;;5046420;28;20045;-71
2023/12/04 08:56:44;;;;;;;5.60;2.00;;;;;;;;;;5042407;28;20119;-72
2023/12/04 08:59:10;;;;;;;5.05;2.10;;;;;;;;;;5044604;28;20116;-72
2023/12/04 09:01:36;;;;;;;4.35;2.10;;;;;;;;;;5046165;28;20052;-73
2023/12/04 09:04:01;;;;;;;3.92;1.90;;;;;;;;;;5029600;28;20043;-72
2023/12/04 09:06:26;;;;;;;5.82;1.80;;;;;;;;;;5044904;28;20112;-72
2023/12/04 09:08:52;;;;;;;3.20;2.10;;;;;;;;;;5043593;28;20037;-71
2023/12/04 09:11:17;;;;;;;4.10;1.90;;;;;;;;;;5046381;28;20040;-71
2023/12/04 09:13:42;;;;;;;4.65;1.92;;;;;;;;;;5045783;28;20102;-71
2023/12/04 09:16:08;;;;;;;5.15;2.15;;;;;;;;;;5047423;28;20033;-72
2023/12/04 09:18:34;;;;;;;3.83;1.83;;;;;;;;;;5042862;28;20531;-72
2023/12/04 09:20:59;;;;;;;3.63;1.80;;;;;;;;;;5046487;28;20490;-72
2023/12/04 09:23:25;;;;;;;3.92;1.77;;;;;;;;;;5047811;28;20124;-71
2023/12/04 09:25:50;;;;;;;3.50;1.90;;;;;;;;;;5046809;28;20560;-72
2023/12/04 09:28:16;;;;;;;3.17;1.67;;;;;;;;;;5043449;28;20037;-71
2023/12/04 09:30:41;;;;;;;4.35;2.00;;;;;;;;;;5044020;28;20121;-71
2023/12/04 09:33:06;;;;;;;3.65;1.92;;;;;;;;;;5044398;28;20044;-71
2023/12/04 09:35:32;;;;;;;4.50;1.70;;;;;;;;;;5046005;28;20048;-71
2023/12/04 09:37:57;;;;;;;3.90;1.88;;;;;;;;;;5045238;28;20378;-71
2023/12/04 09:40:23;;;;;;;2.85;1.58;;;;;;;;;;5045577;28;20101;-73
2023/12/04 09:42:48;;;;;;;3.45;1.80;;;;;;;;;;5044428;28;20049;-72
2023/12/04 09:45:13;;;;;;;4.32;2.20;;;;;;;;;;5033843;28;20033;-73
2023/12/04 09:47:39;;;;;;;3.75;1.92;;;;;;;;;;5045429;28;20048;-73
2023/12/04 09:50:05;;;;;;;2.83;1.73;;;;;;;;;;5044602;28;20044;-72
2023/12/04 09:52:30;;;;;;;3.03;1.83;;;;;;;;;;5044030;28;20792;-71
2023/12/04 09:54:56;;;;;;;4.00;1.52;;;;;;;;;;5045310;28;20187;-71
2023/12/04 09:57:21;;;;;;;2.40;1.50;;;;;;;;;;5042849;28;20041;-71
2023/12/04 09:59:47;;;;;;;2.65;1.45;;;;;;;;;;5039677;28;20126;-72
2023/12/04 10:02:12;;;;;;;3.03;1.90;;;;;;;;;;5046336;28;20044;-71
2023/12/04 10:04:37;;;;;;;3.60;1.90;;;;;;;;;;5038738;28;20573;-71
2023/12/04 10:07:03;;;;;;;3.05;1.52;;;;;;;;;;5030112;28;20056;-74
2023/12/04 10:09:28;;;;;;;3.55;1.80;;;;;;;;;;5045015;28;20037;-71
2023/12/04 10:11:55;;;;;;;3.47;1.58;;;;;;;;;;5036659;28;20131;-72
2023/12/04 10:14:21;;;;;;;3.38;1.75;;;;;;;;;;5023695;28;20092;-72
2023/12/04 10:16:46;;;;;;;3.38;1.98;;;;;;;;;;5045685;28;20056;-72
2023/12/04 10:19:16;;;;;;;2.65;1.70;;;;;;;;;;5045070;28;20414;-74
2023/12/04 10:21:41;;;;;;;3.35;2.10;;;;;;;;;;5044024;28;20056;-74
2023/12/04 10:24:07;;;;;;;2.75;1.85;;;;;;;;;;5044526;28;20213;-73
2023/12/04 10:26:32;;;;;;;3.05;1.80;;;;;;;;;;5040943;28;20480;-72
2023/12/04 10:29:01;;;;;;;3.30;1.65;;;;;;;;;;5042196;28;20110;-71
2023/12/04 10:31:26;;;;;;;4.05;1.58;;;;;;;;;;5038708;28;20045;-71
2023/12/04 10:33:52;;;;;;;2.78;1.90;;;;;;;;;;5047840;28;20182;-71
2023/12/04 10:36:19;;;;;;;3.35;1.77;;;;;;;;;;5041250;28;20916;-73
2023/12/04 10:38:44;;;;;;;2.92;1.48;;;;;;;;;;5039807;28;20037;-74
2023/12/04 10:41:13;;;;;;;3.88;1.75;;;;;;;;;;5037253;28;20904;-73
2023/12/04 10:43:46;;;;;;;3.97;2.45;;;;;;;;;;5040147;28;20043;-72
2023/12/04 10:46:12;;;;;;;2.97;1.60;;;;;;;;;;5037285;28;20029;-72
2023/12/04 10:48:37;;;;;;;3.60;1.70;;;;;;;;;;5032723;28;20297;-72
2023/12/04 10:51:05;;;;;;;2.15;1.65;;;;;;;;;;5037496;28;20528;-70
2023/12/04 10:53:30;;;;;;;4.18;1.70;;;;;;;;;;5031149;28;20036;-71
2023/12/04 10:55:55;;;;;;;2.88;1.48;;;;;;;;;;5042371;28;20029;-72
2023/12/04 10:58:21;;;;;;;3.00;1.80;;;;;;;;;;5034077;28;20110;-73
2023/12/04 11:00:48;;;;;;;2.80;1.63;;;;;;;;;;5036369;28;20532;-71
2023/12/04 11:03:14;;;;;;;2.70;1.70;;;;;;;;;;5038304;28;20045;-74
2023/12/04 11:05:39;;;;;;;2.63;1.65;;;;;;;;;;5030861;28;20029;-73
2023/12/04 11:08:06;;;;;;;3.60;1.90;;;;;;;;;;5038031;28;20045;-72
2023/12/04 11:10:31;;;;;;;3.28;1.67;;;;;;;;;;5021492;28;20097;-72
2023/12/04 11:13:07;;;;;;;2.97;1.60;;;;;;;;;;5039355;28;20033;-70
2023/12/04 11:15:34;;;;;;;3.35;1.50;;;;;;;;;;5037905;28;20037;-74
2023/12/04 11:18:01;;;;;;;4.50;1.63;;;;;;;;;;5041286;28;20017;-71
2023/12/04 11:20:30;;;;;;;3.05;1.83;;;;;;;;;;5046720;28;20732;-71
2023/12/04 11:22:56;;;;;;;2.47;1.70;;;;;;;;;;5046731;28;20503;-72
2023/12/04 11:25:23;;;;;;;2.67;1.50;;;;;;;;;;5048216;28;20029;-73
2023/12/04 11:27:48;;;;;;;2.13;1.42;;;;;;;;;;5044578;28;20033;-71
2023/12/04 11:30:14;;;;;;;3.00;1.73;;;;;;;;;;5048905;28;20391;-70
2023/12/04 11:32:45;;;;;;;1.90;1.25;;;;;;;;;;5048630;28;20048;-72
2023/12/04 11:35:17;;;;;;;2.20;1.40;;;;;;;;;;5045842;28;20529;-72
2023/12/04 11:37:43;;;;;;;2.50;1.50;;;;;;;;;;5046908;28;20482;-71
2023/12/04 11:40:12;;;;;;;2.13;1.40;;;;;;;;;;5041688;28;20056;-71
2023/12/04 11:42:39;;;;;;;2.67;1.85;;;;;;;;;;5046544;28;20049;-69
2023/12/04 11:45:05;;;;;;;1.95;1.63;;;;;;;;;;5044677;28;20045;-73
2023/12/04 11:47:31;;;;;;;2.72;1.48;;;;;;;;;;5047056;28;20532;-72
2023/12/04 11:49:57;;;;;;;2.45;1.50;;;;;;;;;;5047078;28;20032;-72
2023/12/04 11:52:32;;;;;;;2.97;1.65;;;;;;;;;;5048543;28;20037;-71
2023/12/04 11:54:59;;;;;;;2.40;1.45;;;;;;;;;;5043304;28;20088;-70
2023/12/04 11:57:25;;;;;;;2.85;1.60;;;;;;;;;;5045588;28;20044;-72
2023/12/04 11:59:51;;;;;;;2.20;1.40;;;;;;;;;;5041214;28;20032;-72
2023/12/04 12:02:17;;;;;;;2.25;1.40;;;;;;;;;;5048224;28;20129;-70
2023/12/04 12:04:44;;;;;;;4.25;1.58;;;;;;;;;;5046671;28;20418;-73
2023/12/04 12:07:10;;;;;;;3.03;1.38;;;;;;;;;;5049553;28;20087;-71
2023/12/04 12:09:36;;;;;;;1.90;1.35;;;;;;;;;;5037137;28;20041;-70
2023/12/04 12:12:02;;;;;;;2.47;1.52;;;;;;;;;;5047734;28;20157;-71
2023/12/04 12:14:30;;;;;;;2.85;1.63;;;;;;;;;;5043480;28;20037;-72
2023/12/04 12:16:57;;;;;;;2.47;1.70;;;;;;;;;;5043957;28;20049;-69
2023/12/04 12:19:22;;;;;;;1.77;1.30;;;;;;;;;;5045465;28;20037;-72
2023/12/04 12:21:49;;;;;;;3.15;1.70;;;;;;;;;;5045395;28;20110;-73
2023/12/04 12:24:14;;;;;;;2.53;1.70;;;;;;;;;;5023775;28;20082;-70
2023/12/04 12:26:40;;;;;;;3.13;1.42;;;;;;;;;;5037405;28;20028;-72
2023/12/04 12:29:05;;;;;;;2.60;1.70;;;;;;;;;;5042174;28;20312;-72
2023/12/04 12:31:31;;;;;;;2.30;1.40;;;;;;;;;;5044247;28;20140;-72
2023/12/04 12:33:57;;;;;;;2.20;1.27;;;;;;;;;;5046331;28;20105;-72
2023/12/04 12:36:22;;;;;;;2.33;1.60;;;;;;;;;;5047327;28;20028;-72
2023/12/04 12:38:49;;;;;;;3.47;1.67;;;;;;;;;;5047306;28;20036;-72
2023/12/04 12:41:18;;;;;;;2.70;1.88;;;;;;;;;;5044512;28;20041;-73
2023/12/04 12:43:43;;;;;;;2.03;1.27;;;;;;;;;;5047707;28;20037;-73
2023/12/04 12:46:09;;;;;;;1.60;1.20;;;;;;;;;;5047453;28;20040;-72
2023/12/04 12:48:34;;;;;;;2.30;1.60;;;;;;;;;;5044877;28;20144;-72
2023/12/04 12:51:00;;;;;;;2.67;1.45;;;;;;;;;;5047014;28;20115;-72
2023/12/04 12:53:25;;;;;;;2.83;1.70;;;;;;;;;;5045030;28;20036;-72
2023/12/04 12:55:50;;;;;;;2.92;1.58;;;;;;;;;;5046575;28;20489;-72
2023/12/04 12:58:20;;;;;;;2.45;1.30;;;;;;;;;;5044525;28;20444;-73
2023/12/04 13:00:45;;;;;;;2.05;1.30;;;;;;;;;;5045350;28;20033;-73
2023/12/04 13:03:14;;;;;;;2.55;1.58;;;;;;;;;;5044751;28;20505;-73
2023/12/04 13:05:39;;;;;;;2.83;1.47;;;;;;;;;;5045264;28;20479;-73
2023/12/04 13:08:05;;;;;;;2.65;1.70;;;;;;;;;;5046612;28;20031;-73
2023/12/04 13:10:30;;;;;;;3.20;1.60;;;;;;;;;;5044121;28;20041;-73
2023/12/04 13:12:56;;;;;;;2.42;1.33;;;;;;;;;;5045472;28;20033;-73
2023/12/04 13:15:21;;;;;;;2.13;1.30;;;;;;;;;;5043620;28;20260;-76
2023/12/04 13:17:47;;;;;;;2.13;1.50;;;;;;;;;;5034050;28;20395;-73
2023/12/04 13:20:13;;;;;;;2.35;1.40;;;;;;;;;;5046116;28;20029;-74
2023/12/04 13:22:39;;;;;;;2.88;1.67;;;;;;;;;;5042168;28;20041;-73
2023/12/04 13:25:07;;;;;;;2.35;1.58;;;;;;;;;;5038575;28;20039;-75
2023/12/04 13:27:33;;;;;;;2.15;1.63;;;;;;;;;;5039225;28;20040;-74
2023/12/04 13:29:58;;;;;;;2.70;1.38;;;;;;;;;;5038680;28;20033;-75
2023/12/04 13:32:23;;;;;;;2.78;1.52;;;;;;;;;;5056102;28;20401;-74
2023/12/04 13:34:49;;;;;;;2.05;1.55;;;;;;;;;;5041992;28;20068;-73
2023/12/04 13:37:15;;;;;;;2.55;1.60;;;;;;;;;;5040113;28;20049;-73
2023/12/04 13:39:57;;;;;;;2.67;1.40;;;;;;;;;;5029302;28;20110;-73
2023/12/04 13:45:09;;;;;;;2.95;1.50;;;;;;;;;;5046112;28;20475;-73
2023/12/04 13:47:34;;;;;;;2.28;1.30;;;;;;;;;;5046610;28;20374;-73
2023/12/04 13:49:59;;;;;;;2.45;1.60;;;;;;;;;;5046328;28;20457;-73
2023/12/04 13:52:27;;;;;;;2.67;1.63;;;;;;;;;;5045168;28;20036;-73
2023/12/04 13:54:54;;;;;;;3.05;1.50;;;;;;;;;;5045752;28;20106;-73
2023/12/04 13:57:32;;;;;;;2.35;1.60;;;;;;;;;;5046149;28;20041;-72
2023/12/04 14:00:01;;;;;;;2.63;1.48;;;;;;;;;;5047082;28;20017;-72
2023/12/04 14:02:27;;;;;;;2.35;1.55;;;;;;;;;;5045233;28;20043;-72
2023/12/04 14:04:52;;;;;;;2.45;1.30;;;;;;;;;;5045622;28;20024;-72
2023/12/04 14:07:18;;;;;;;2.85;1.63;;;;;;;;;;5045704;28;20025;-72
2023/12/04 14:09:45;;;;;;;2.08;1.30;;;;;;;;;;5045429;28;20062;-72
2023/12/04 14:12:10;;;;;;;3.17;1.58;;;;;;;;;;5046825;28;20037;-72
2023/12/04 14:14:37;;;;;;;2.63;1.70;;;;;;;;;;5042434;28;20122;-71
2023/12/04 14:17:04;;;;;;;2.70;1.83;;;;;;;;;;5041273;28;20059;-72
2023/12/04 14:19:29;;;;;;;2.15;1.52;;;;;;;;;;5034569;28;20634;-72
2023/12/04 14:21:54;;;;;;;3.53;1.70;;;;;;;;;;5041755;28;20039;-71
2023/12/04 14:24:21;;;;;;;2.47;1.55;;;;;;;;;;5045263;28;20143;-73
2023/12/04 14:26:46;;;;;;;2.60;1.58;;;;;;;;;;5043799;28;20045;-73
2023/12/04 14:29:13;;;;;;;5.35;3.47;;;;;;;;;;5028707;28;20033;-74
2023/12/04 14:31:38;;;;;;;2.85;2.15;;;;;;;;;;5045572;28;20032;-74
2023/12/04 14:34:03;;;;;;;3.80;1.85;;;;;;;;;;5041955;28;20391;-73
2023/12/04 14:36:32;;;;;;;2.95;1.60;;;;;;;;;;5050969;28;20116;-74